Time;durP1;ratioP1;P1;durP2;ratioP2;P2;SDS_P1;SDS_P2;PMS_P1;PMS_P2;Temp;Humidity;BMP_temperature;BMP_pressure;BME280_temperature;BME280_humidity;BME280_pressure;Samples;Min_cycle;Max_cycle;Signal;HPM_P1;HPM_P2
2022/05/06 00:01:12;;;;;;;35.78;28.05;;;;;;;12.97;71.56;100814.66;1976032;90;30568;-59
2022/05/06 00:04:14;;;;;;;39.78;29.82;;;;;;;12.90;71.50;100815.45;1976188;90;27771;-63
2022/05/06 00:07:17;;;;;;;46.33;32.53;;;;;;;12.86;71.69;100819.24;1976201;90;29070;-59
2022/05/06 00:10:19;;;;;;;41.75;29.90;;;;;;;12.83;71.83;100820.73;1976273;90;31050;-60
2022/05/06 00:13:22;;;;;;;44.25;30.90;;;;;;;12.83;71.97;100816.70;1976049;90;34217;-63
2022/05/06 00:16:26;;;;;;;36.40;29.07;;;;;;;12.83;72.13;100813.55;1976345;90;29340;-59
2022/05/06 00:19:29;;;;;;;36.55;28.87;;;;;;;12.85;72.19;100818.39;1976451;90;27715;-63
2022/05/06 00:22:32;;;;;;;39.60;28.12;;;;;;;12.87;72.23;100821.88;1976044;90;29848;-61
2022/05/06 00:25:36;;;;;;;32.63;24.95;;;;;;;12.89;72.30;100817.75;1976350;90;31062;-59
2022/05/06 00:28:40;;;;;;;33.50;23.43;;;;;;;12.91;72.35;100820.73;1976289;90;33829;-59
2022/05/06 00:31:42;;;;;;;30.17;23.67;;;;;;;12.94;72.39;100821.54;1976249;90;29135;-61
2022/05/06 00:34:47;;;;;;;30.50;23.25;;;;;;;12.96;72.35;100826.37;1976371;90;27679;-60
2022/05/06 00:37:49;;;;;;;;;;;;;;;12.98;72.32;100828.05;1978995;90;28665;-60
2022/05/06 00:40:53;;;;;;;27.13;21.52;;;;;;;13.00;72.40;100827.47;1976294;90;31994;-59
2022/05/06 00:43:57;;;;;;;26.12;21.02;;;;;;;13.01;72.44;100834.59;1976447;90;33153;-60
2022/05/06 00:47:00;;;;;;;27.25;22.02;;;;;;;13.01;72.31;100837.77;1976034;90;30222;-61
2022/05/06 00:50:05;;;;;;;26.77;22.42;;;;;;;13.01;72.40;100838.62;1976041;90;27656;-61
2022/05/06 00:53:08;;;;;;;27.35;21.90;;;;;;;13.01;72.35;100827.87;1976596;90;28714;-64
2022/05/06 00:56:12;;;;;;;27.25;22.95;;;;;;;12.98;72.29;100828.05;1957758;90;31104;-59
2022/05/06 00:59:14;;;;;;;29.12;23.35;;;;;;;12.94;72.30;100828.26;1976379;90;32969;-59
2022/05/06 01:02:16;;;;;;;30.12;23.42;;;;;;;12.94;72.30;100828.26;1976902;90;29885;-59
2022/05/06 01:05:19;;;;;;;27.37;22.95;;;;;;;12.91;72.24;100830.64;1976516;90;27695;-58
2022/05/06 01:08:22;;;;;;;25.80;22.40;;;;;;;12.88;72.21;100833.48;1976176;90;29539;-59
2022/05/06 01:11:23;;;;;;;24.60;21.95;;;;;;;12.82;72.19;100835.16;1976124;90;32267;-60
2022/05/06 01:14:33;;;;;;;28.83;22.40;;;;;;;12.76;72.04;100841.23;1976430;90;33777;-59
2022/05/06 01:17:35;;;;;;;26.87;23.02;;;;;;;12.70;72.00;100846.05;1976485;90;30179;-59
2022/05/06 01:20:43;;;;;;;23.92;21.02;;;;;;;12.63;71.99;100841.91;1976409;90;27775;-62
2022/05/06 01:23:45;;;;;;;28.57;22.62;;;;;;;12.54;71.82;100836.52;1976460;90;29484;-59
2022/05/06 01:27:00;;;;;;;25.88;22.00;;;;;;;12.46;71.92;100836.89;1976442;90;32213;-59
2022/05/06 01:30:04;;;;;;;26.85;22.73;;;;;;;12.36;71.84;100837.81;1976122;90;34399;-58
2022/05/06 01:33:08;;;;;;;27.02;21.93;;;;;;;12.27;71.91;100838.27;1976501;90;30138;-59
2022/05/06 01:36:11;;;;;;;27.00;22.95;;;;;;;12.20;71.92;100844.86;1976646;90;27705;-60
2022/05/06 01:39:19;;;;;;;30.20;22.77;;;;;;;12.13;72.07;100844.29;1976533;90;28680;-60
2022/05/06 01:42:22;;;;;;;29.02;23.52;;;;;;;12.09;72.15;100849.39;1975873;90;30845;-57
2022/05/06 01:45:26;;;;;;;29.55;24.30;;;;;;;12.06;72.38;100848.23;1976407;90;33737;-56
2022/05/06 01:48:29;;;;;;;31.02;25.65;;;;;;;12.05;72.55;100854.53;1976547;90;29350;-57
2022/05/06 01:51:31;;;;;;;31.15;23.35;;;;;;;12.05;72.85;100853.20;1976249;90;27766;-57
2022/05/06 01:54:33;;;;;;;29.23;25.25;;;;;;;12.04;72.92;100859.02;1976470;90;29893;-58
2022/05/06 01:57:36;;;;;;;36.03;25.40;;;;;;;12.02;72.97;100855.53;1976509;90;30633;-56
2022/05/06 02:00:38;;;;;;;30.15;25.27;;;;;;;12.02;73.07;100866.77;1942262;90;33798;-58
2022/05/06 02:07:00;;;;;;;36.20;25.08;;;;;;;11.96;73.17;100860.69;1948591;91;27720;-58
2022/05/06 02:10:04;;;;;;;31.30;25.17;;;;;;;11.92;73.17;100861.77;1950678;91;28738;-58
2022/05/06 02:13:06;;;;;;;34.03;26.57;;;;;;;11.88;73.30;100868.24;1972684;90;31739;-58
2022/05/06 02:16:08;;;;;;;35.75;28.75;;;;;;;11.83;73.32;100873.80;1967107;90;34205;-58
2022/05/06 02:19:11;;;;;;;30.75;27.10;;;;;;;11.77;73.35;100871.87;1967542;90;29351;-57
2022/05/06 02:22:13;;;;;;;32.00;26.80;;;;;;;11.72;73.33;100880.63;1948212;90;27798;-57
2022/05/06 02:25:15;;;;;;;32.23;27.17;;;;;;;11.66;73.38;100875.92;1951226;91;29488;-58
2022/05/06 02:28:17;;;;;;;32.95;26.60;;;;;;;11.58;73.34;100874.52;1951051;91;31957;-57
2022/05/06 02:34:40;;;;;;;34.75;27.85;;;;;;;11.47;73.62;100873.20;1969729;90;30590;-58
2022/05/06 02:37:42;;;;;;;35.70;28.57;;;;;;;11.41;73.73;100881.50;1967440;90;28369;-58
2022/05/06 02:40:45;;;;;;;37.13;29.40;;;;;;;11.35;74.15;100881.31;1958848;90;29961;-57
2022/05/06 02:43:47;;;;;;;39.33;28.62;;;;;;;11.31;74.23;100885.05;1950959;91;32279;-58
2022/05/06 02:46:49;;;;;;;35.83;29.12;;;;;;;11.27;74.41;100883.44;1950951;91;34215;-58
2022/05/06 02:49:53;;;;;;;35.88;28.45;;;;;;;11.24;74.42;100884.94;1950951;91;29405;-58
2022/05/06 02:52:55;;;;;;;36.95;29.65;;;;;;;11.20;74.35;100882.83;1970346;90;27708;-58
2022/05/06 02:55:57;;;;;;;38.23;28.85;;;;;;;11.16;74.56;100882.58;1967625;90;29835;-58
2022/05/06 02:58:59;;;;;;;37.13;29.50;;;;;;;11.13;74.48;100886.73;1969096;90;31727;-58
2022/05/06 03:02:02;;;;;;;35.00;28.90;;;;;;;11.09;74.70;100888.65;1953643;90;34265;-58
2022/05/06 03:05:05;;;;;;;34.48;29.48;;;;;;;11.07;74.72;100895.02;1947603;91;29555;-58
2022/05/06 03:08:07;;;;;;;35.75;30.43;;;;;;;11.03;74.72;100892.06;1920613;92;27744;-58
2022/05/06 03:11:10;;;;;;;34.73;29.85;;;;;;;10.99;74.76;100891.81;1965585;89;29903;-58
2022/05/06 03:14:12;;;;;;;37.00;30.45;;;;;;;10.94;74.84;100887.50;1980761;89;32133;-59
2022/05/06 03:17:14;;;;;;;35.90;28.45;;;;;;;10.90;74.76;100887.70;1981146;89;33552;-58
2022/05/06 03:20:16;;;;;;;41.08;31.35;;;;;;;10.83;74.72;100889.77;1974594;89;30044;-58
2022/05/06 03:23:18;;;;;;;34.85;28.73;;;;;;;10.78;75.12;100892.61;1950231;91;27637;-58
2022/05/06 03:26:20;;;;;;;38.80;31.05;;;;;;;10.76;75.23;100891.80;1950250;91;28429;-58
2022/05/06 03:29:22;;;;;;;42.78;33.90;;;;;;;10.75;75.77;100899.47;1949946;91;31729;-58
2022/05/06 03:32:24;;;;;;;35.83;29.70;;;;;;;10.76;75.96;100894.96;1978194;89;32728;-60
2022/05/06 03:35:29;;;;;;;39.40;31.77;;;;;;;10.79;75.96;100901.54;1980782;89;30544;-58
2022/05/06 03:38:32;;;;;;;37.75;31.17;;;;;;;10.82;75.92;100900.08;1981090;89;27671;-57
2022/05/06 03:41:35;;;;;;;37.48;29.87;;;;;;;10.85;75.86;100914.67;1961802;89;28671;-57
2022/05/06 03:44:37;;;;;;;40.40;30.55;;;;;;;10.87;75.80;100922.19;1949868;91;31904;-57
2022/05/06 03:47:38;;;;;;;38.38;30.80;;;;;;;10.89;75.68;100924.34;1949870;91;34220;-57
2022/05/06 03:54:04;;;;;;;36.73;30.05;;;;;;;10.97;75.73;100931.20;1980986;89;27643;-57
2022/05/06 03:57:06;;;;;;;35.70;30.37;;;;;;;11.02;75.85;100935.89;1980993;89;28192;-63
2022/05/06 04:00:10;;;;;;;37.58;30.88;;;;;;;11.09;76.10;100936.05;1977174;89;31103;-58
2022/05/06 04:03:12;;;;;;;39.83;29.80;;;;;;;11.18;76.15;100930.78;1950407;91;33811;-58
2022/05/06 04:06:15;;;;;;;38.02;30.10;;;;;;;11.27;76.13;100934.88;1949982;91;29858;-58
2022/05/06 04:09:18;;;;;;;38.08;29.57;;;;;;;11.38;76.19;100938.86;1949920;91;27777;-58
2022/05/06 04:12:21;;;;;;;36.17;28.98;;;;;;;11.53;76.21;100951.20;1976013;89;28672;-58
2022/05/06 04:15:23;;;;;;;40.12;29.63;;;;;;;11.68;76.05;100949.65;1981046;89;32189;-57
2022/05/06 04:18:25;;;;;;;33.08;28.47;;;;;;;11.82;75.99;100955.31;1981149;89;33956;-57
2022/05/06 04:24:50;;;;;;;35.17;28.42;;;;;;;12.15;75.82;100961.93;1950066;91;27720;-58
2022/05/06 04:27:52;;;;;;;31.90;28.20;;;;;;;12.35;75.73;100958.80;1950321;91;29201;-58
2022/05/06 04:30:55;;;;;;;35.00;29.82;;;;;;;12.50;75.56;100966.14;1960225;89;32289;-57
2022/05/06 04:33:57;;;;;;;36.00;28.30;;;;;;;12.65;75.44;100967.25;1980846;89;33829;-58
2022/05/06 04:36:59;;;;;;;32.35;27.90;;;;;;;12.76;75.16;100967.59;1951639;89;29778;-57
2022/05/06 04:40:01;;;;;;;30.82;27.40;;;;;;;12.84;74.99;100974.41;1951291;89;27733;-57
2022/05/06 04:43:06;;;;;;;33.28;27.98;;;;;;;12.89;74.85;100983.13;1950293;91;29163;-57
2022/05/06 04:46:08;;;;;;;35.35;25.95;;;;;;;12.95;74.78;100985.53;1969771;89;31058;-57
2022/05/06 04:49:10;;;;;;;30.70;25.90;;;;;;;13.03;74.69;100985.16;1980970;89;33815;-57
2022/05/06 04:52:12;;;;;;;30.55;26.48;;;;;;;13.13;74.52;100985.09;1980922;89;30471;-57
2022/05/06 04:55:14;;;;;;;31.50;25.08;;;;;;;13.23;74.32;100978.78;1970789;89;27716;-58
2022/05/06 04:58:18;;;;;;;31.68;24.37;;;;;;;13.38;74.22;100982.53;1950358;91;28643;-57
2022/05/06 05:01:20;;;;;;;27.50;24.52;;;;;;;13.60;74.02;100985.48;1961022;90;31886;-57
2022/05/06 05:04:27;;;;;;;27.50;23.05;;;;;;;13.95;74.08;100989.06;1965092;90;33896;-58
2022/05/06 05:07:26;;;;;;;30.57;23.12;;;;;;;14.51;73.97;100984.70;1965158;90;29698;-57
2022/05/06 05:10:28;;;;;;;30.17;22.13;;;;;;;15.46;72.67;100974.88;1965585;90;27684;-57
2022/05/06 05:13:38;;;;;;;24.70;20.88;;;;;;;15.46;72.67;100974.88;1965589;90;29845;-57
2022/05/06 05:16:40;;;;;;;24.12;20.12;;;;;;;15.94;71.76;100996.83;1965654;90;31050;-57
2022/05/06 05:19:42;;;;;;;23.50;19.02;;;;;;;16.23;70.88;100999.06;1965220;90;34180;-57
2022/05/06 05:22:44;;;;;;;24.05;18.15;;;;;;;16.55;69.62;101002.06;1965873;90;30396;-57
2022/05/06 05:25:46;;;;;;;20.88;15.90;;;;;;;16.55;69.62;101002.06;1965525;90;27709;-57
2022/05/06 05:28:48;;;;;;;22.37;17.05;;;;;;;16.53;69.19;100987.77;1965311;90;29686;-57
2022/05/06 05:31:52;;;;;;;21.50;16.55;;;;;;;16.70;68.03;101008.34;1965484;90;31490;-57
2022/05/06 05:34:54;;;;;;;17.70;14.40;;;;;;;16.67;67.43;101005.83;1965402;90;33932;-57
2022/05/06 05:37:56;;;;;;;18.92;13.25;;;;;;;16.56;66.52;101010.56;1965617;90;29659;-58
2022/05/06 05:40:58;;;;;;;15.90;12.73;;;;;;;16.44;65.59;101014.05;1965643;90;27696;-57
2022/05/06 05:50:43;;;;;;;16.05;11.80;;;;;;;16.30;65.28;101022.53;1965196;90;34160;-58
2022/05/06 05:53:46;;;;;;;17.23;11.50;;;;;;;16.28;64.62;101018.19;1965512;90;28737;-59
2022/05/06 05:56:48;;;;;;;14.87;11.53;;;;;;;16.24;64.23;101021.08;1965354;90;27716;-58
2022/05/06 05:59:51;;;;;;;13.75;10.98;;;;;;;16.23;64.01;101019.83;1965074;90;29565;-58
2022/05/06 06:02:53;;;;;;;14.28;11.33;;;;;;;16.17;63.43;101018.39;1965286;90;31901;-60
2022/05/06 06:05:55;;;;;;;16.30;10.78;;;;;;;16.12;63.21;101032.66;1965451;90;33276;-58
2022/05/06 06:08:58;;;;;;;13.35;10.18;;;;;;;16.09;62.86;101031.48;1965273;90;30529;-58
2022/05/06 06:12:00;;;;;;;12.43;10.82;;;;;;;16.05;62.63;101032.16;1965458;90;27712;-60
2022/05/06 06:15:03;;;;;;;14.70;11.43;;;;;;;16.04;62.56;101032.27;1965153;90;29518;-60
2022/05/06 06:18:06;;;;;;;12.60;10.28;;;;;;;16.09;62.63;101032.84;1965143;90;31912;-61
2022/05/06 06:21:22;;;;;;;15.00;11.15;;;;;;;16.14;62.19;101032.09;1965149;90;34369;-58
2022/05/06 06:24:24;;;;;;;14.18;10.23;;;;;;;16.19;61.98;101039.91;1965277;90;30740;-61
2022/05/06 06:27:28;;;;;;;15.00;10.95;;;;;;;16.24;61.90;101037.80;1965481;90;27736;-60
2022/05/06 06:30:32;;;;;;;14.77;10.80;;;;;;;16.33;61.95;101040.41;1965793;90;28790;-59
2022/05/06 06:33:37;;;;;;;17.30;11.00;;;;;;;16.39;61.33;101037.30;1965690;90;31230;-57
2022/05/06 06:36:37;;;;;;;14.73;10.48;;;;;;;16.45;60.73;101038.29;1965209;90;33865;-56
2022/05/06 06:39:39;;;;;;;15.13;10.35;;;;;;;16.58;60.63;101034.34;1965430;90;30645;-57
2022/05/06 06:42:42;;;;;;;13.55;9.95;;;;;;;16.74;60.16;101038.27;1965231;90;27717;-57
2022/05/06 06:45:45;;;;;;;13.58;9.50;;;;;;;16.89;59.96;101035.55;1965478;90;30058;-57
2022/05/06 06:48:47;;;;;;;13.85;10.23;;;;;;;17.21;59.96;101028.58;1965190;90;31974;-58
2022/05/06 06:51:50;;;;;;;13.38;8.95;;;;;;;17.60;58.99;101020.97;1965295;90;35127;-57
2022/05/06 06:55:01;;;;;;;12.95;8.80;;;;;;;17.92;58.92;101023.31;1965364;90;30123;-57
2022/05/06 06:58:03;;;;;;;13.38;9.33;;;;;;;18.17;58.12;101020.77;1965364;90;27723;-57
2022/05/06 07:01:05;;;;;;;15.75;9.35;;;;;;;18.26;57.35;101022.81;1971850;89;29437;-58
2022/05/06 07:04:08;;;;;;;17.05;9.83;;;;;;;18.33;56.91;101022.78;1983413;89;31967;-57
2022/05/06 07:13:52;;;;;;;12.10;9.30;;;;;;;18.72;55.95;101027.27;1983285;89;27694;-58
2022/05/06 07:16:54;;;;;;;15.48;9.13;;;;;;;18.77;55.51;101033.25;1983249;89;29688;-57
2022/05/06 07:19:56;;;;;;;14.07;9.15;;;;;;;18.81;53.91;101039.69;1982952;89;32267;-57
2022/05/06 07:22:58;;;;;;;13.58;8.53;;;;;;;18.73;54.66;101034.44;1982944;89;33835;-57
2022/05/06 07:26:00;;;;;;;14.38;8.38;;;;;;;18.60;54.01;101044.83;1983595;89;29346;-61
2022/05/06 07:29:03;;;;;;;13.00;9.30;;;;;;;18.55;53.03;101047.00;1983454;89;27813;-57
2022/05/06 07:32:08;;;;;;;10.53;7.95;;;;;;;18.51;53.52;101054.50;1983231;89;29590;-57
2022/05/06 07:35:09;;;;;;;;;;;;;;;18.64;53.58;101060.40;1985689;89;31016;-58
2022/05/06 07:38:12;;;;;;;12.05;8.73;;;;;;;18.69;53.21;101054.16;1983245;89;34106;-57
2022/05/06 07:41:14;;;;;;;14.75;8.85;;;;;;;18.71;53.57;101053.56;1983017;89;30558;-58
2022/05/06 07:44:16;;;;;;;11.00;8.48;;;;;;;18.86;53.36;101056.14;1983219;89;27724;-60
2022/05/06 07:47:18;;;;;;;10.50;8.35;;;;;;;18.97;53.02;101053.06;1983237;89;29920;-59
2022/05/06 07:50:21;;;;;;;16.23;8.85;;;;;;;19.10;53.13;101059.83;1983516;89;31033;-57
2022/05/06 07:53:23;;;;;;;11.12;7.85;;;;;;;19.27;52.69;101057.70;1983363;89;34081;-57
2022/05/06 07:56:29;;;;;;;10.78;7.70;;;;;;;19.36;52.27;101055.66;1982953;89;30589;-65
2022/05/06 07:59:30;;;;;;;11.88;7.47;;;;;;;19.41;51.69;101058.02;1983067;89;27688;-60
2022/05/06 08:05:57;;;;;;;9.95;7.58;;;;;;;19.26;50.59;101060.91;1983445;89;31133;-60
2022/05/06 08:08:56;;;;;;;15.20;7.20;;;;;;;19.28;50.40;101060.77;1983514;89;33681;-62
2022/05/06 08:11:59;;;;;;;10.82;6.40;;;;;;;19.37;50.26;101048.35;1983419;89;31407;-63
2022/05/06 08:15:01;;;;;;;12.58;6.35;;;;;;;19.76;50.59;101045.47;1983510;89;27715;-67
2022/05/06 08:18:03;;;;;;;9.78;6.95;;;;;;;20.13;50.38;101046.70;1983436;89;28659;-62
2022/05/06 08:21:05;;;;;;;12.55;6.95;;;;;;;20.33;49.39;101051.45;1983130;89;31763;-61
2022/05/06 08:24:08;;;;;;;13.83;6.42;;;;;;;20.52;48.63;101058.67;1983043;89;33835;-59
2022/05/06 08:27:11;;;;;;;13.08;7.12;;;;;;;20.75;49.13;101066.34;1983677;89;30497;-59
2022/05/06 08:30:14;;;;;;;10.28;6.80;;;;;;;21.16;49.19;101072.16;1983779;89;27752;-62
2022/05/06 08:33:17;;;;;;;10.98;6.20;;;;;;;21.55;48.10;101065.73;1983727;89;28733;-58
2022/05/06 08:36:19;;;;;;;14.65;6.87;;;;;;;21.83;46.71;101058.84;1983360;89;31903;-58
2022/05/06 08:39:21;;;;;;;13.05;6.90;;;;;;;22.03;45.31;101059.00;1983285;89;33845;-61
2022/05/06 08:42:24;;;;;;;13.28;7.42;;;;;;;22.00;45.60;101064.71;1983493;89;29679;-59
2022/05/06 08:52:11;;;;;;;12.13;6.72;;;;;;;21.81;45.39;101064.07;1983537;89;32068;-60
2022/05/06 08:55:14;;;;;;;9.68;6.37;;;;;;;21.70;44.85;101071.28;1983515;89;33001;-60
2022/05/06 08:58:18;;;;;;;10.18;6.37;;;;;;;21.67;45.44;101069.33;1983111;89;30787;-58
2022/05/06 09:01:22;;;;;;;11.15;6.75;;;;;;;21.68;45.14;101065.09;1983256;89;33651;-63
2022/05/06 09:04:24;;;;;;;12.88;7.15;;;;;;;21.78;45.14;101072.00;1961227;89;28707;-61
2022/05/06 09:07:27;;;;;;;8.03;5.87;;;;;;;21.87;44.75;101068.98;1983694;89;31280;-58
2022/05/06 09:10:30;;;;;;;10.38;6.30;;;;;;;22.01;44.83;101071.39;1983596;89;33138;-58
2022/05/06 09:13:32;;;;;;;11.35;6.12;;;;;;;22.12;44.52;101078.66;1983666;89;29338;-58
2022/05/06 09:16:41;;;;;;;8.43;5.65;;;;;;;22.29;44.39;101072.23;1952639;91;27722;-59
2022/05/06 09:19:43;;;;;;;9.33;5.05;;;;;;;22.38;44.09;101065.98;1932965;91;29148;-59
2022/05/06 09:22:45;;;;;;;7.83;4.30;;;;;;;22.43;43.51;101063.72;1952606;91;32087;-58
2022/05/06 09:25:54;;;;;;;7.83;5.10;;;;;;;22.41;42.80;101063.47;1975044;89;33197;-60
2022/05/06 09:28:57;;;;;;;6.42;4.28;;;;;;;22.34;42.66;101060.41;1983065;89;31444;-58
2022/05/06 09:32:25;;;;;;;8.60;3.95;;;;;;;22.44;42.46;101062.72;1983401;89;27704;-58
2022/05/06 09:35:30;;;;;;;8.40;3.95;;;;;;;22.39;41.87;101063.62;1983263;89;29573;-58
2022/05/06 09:38:41;;;;;;;10.82;4.33;;;;;;;22.30;41.51;101065.29;1983722;89;31027;-58
2022/05/06 09:42:16;;;;;;;8.85;4.00;;;;;;;22.21;41.32;101069.31;1983551;89;32993;-61
2022/05/06 09:45:47;;;;;;;5.92;3.52;;;;;;;22.04;40.99;101053.02;1981707;89;27767;-59
2022/05/06 09:49:06;;;;;;;7.97;4.05;;;;;;;21.93;40.47;101062.12;1963216;89;27820;-58
2022/05/06 09:52:16;;;;;;;9.28;3.70;;;;;;;21.76;39.89;101056.25;1983004;89;30055;-60
2022/05/06 09:55:19;;;;;;;8.93;4.55;;;;;;;21.52;39.82;101055.08;1983353;89;31894;-58
2022/05/06 09:58:21;;;;;;;6.70;5.05;;;;;;;21.49;40.37;101058.09;1983596;89;33954;-59
2022/05/06 10:01:23;;;;;;;6.08;4.45;;;;;;;21.44;40.56;101038.52;1983280;89;30028;-59
2022/05/06 10:04:26;;;;;;;7.50;4.42;;;;;;;21.45;40.01;101044.34;1983116;89;27787;-58
2022/05/06 10:07:29;;;;;;;10.30;5.08;;;;;;;21.44;40.86;101043.97;1983162;89;28137;-59
2022/05/06 10:10:41;;;;;;;8.30;4.92;;;;;;;21.50;40.59;101047.05;1983318;89;31030;-59
2022/05/06 10:13:46;;;;;;;11.95;5.30;;;;;;;21.43;40.14;101044.96;1983359;89;32998;-57
2022/05/06 10:16:49;;;;;;;9.15;4.90;;;;;;;21.35;40.84;101040.16;1952810;91;29404;-58
2022/05/06 10:19:52;;;;;;;8.48;4.62;;;;;;;21.33;40.53;101040.77;1952574;91;27702;-57
2022/05/06 10:23:04;;;;;;;9.10;5.10;;;;;;;21.34;40.34;101041.14;1952209;91;29102;-58
2022/05/06 10:26:05;;;;;;;5.67;3.62;;;;;;;21.30;40.52;101043.27;1976152;89;32339;-58
2022/05/06 10:32:57;;;;;;;4.08;3.20;;;;;;;21.21;39.53;101040.81;1983202;89;29954;-60
2022/05/06 10:36:00;;;;;;;7.35;4.17;;;;;;;21.08;38.96;101034.14;1983627;89;27731;-59
2022/05/06 10:39:07;;;;;;;6.22;3.42;;;;;;;21.00;39.51;101033.92;1983182;89;29918;-62
2022/05/06 10:42:17;;;;;;;6.22;4.17;;;;;;;20.97;39.45;101028.73;1981944;89;31965;-63
2022/05/06 10:45:27;;;;;;;6.90;4.50;;;;;;;21.00;39.56;101039.85;1983349;89;33038;-58
2022/05/06 10:48:30;;;;;;;7.83;4.10;;;;;;;20.93;40.16;101031.33;1983295;89;29390;-58
2022/05/06 10:51:32;;;;;;;6.25;4.15;;;;;;;20.82;39.57;101031.34;1983620;89;27746;-59
2022/05/06 10:54:36;;;;;;;8.00;3.87;;;;;;;20.82;40.34;101026.75;1983251;89;29088;-58
2022/05/06 10:57:51;;;;;;;7.95;3.72;;;;;;;20.78;39.76;101033.42;1983533;89;30651;-57
2022/05/06 11:01:00;;;;;;;7.60;3.12;;;;;;;20.67;38.85;101038.86;1983617;89;34015;-58
2022/05/06 11:04:03;;;;;;;9.28;3.98;;;;;;;20.51;39.43;101038.73;1979567;89;29343;-60
2022/05/06 11:07:13;;;;;;;6.12;3.47;;;;;;;20.52;39.52;101034.17;1950267;91;27915;-57
2022/05/06 11:10:22;;;;;;;7.80;3.40;;;;;;;20.50;39.74;101038.36;1950173;91;28670;-57
2022/05/06 11:13:25;;;;;;;8.88;3.22;;;;;;;20.58;40.01;101029.58;1949848;91;31938;-58
2022/05/06 11:16:27;;;;;;;6.65;2.85;;;;;;;20.67;39.66;101020.68;1975987;89;32979;-59
2022/05/06 11:19:34;;;;;;;9.55;4.25;;;;;;;20.75;39.61;101026.86;1980774;89;30587;-60
2022/05/06 11:22:39;;;;;;;7.45;3.30;;;;;;;20.86;39.39;101020.06;1980855;89;27797;-57
2022/05/06 11:25:50;;;;;;;;;;;;;;;20.95;39.49;101014.36;1965949;89;29368;-57
2022/05/06 11:29:05;;;;;;;9.30;4.00;;;;;;;21.10;39.57;101018.54;1950170;91;31116;-57
2022/05/06 11:32:11;;;;;;;10.95;4.33;;;;;;;21.30;39.90;101009.68;1950217;91;33899;-61
2022/05/06 11:35:20;;;;;;;6.45;3.33;;;;;;;21.42;39.68;100996.89;1961756;89;29391;-58
2022/05/06 11:38:39;;;;;;;7.58;3.35;;;;;;;21.53;39.39;100999.08;1960619;89;28026;-58
2022/05/06 11:41:41;;;;;;;10.13;3.30;;;;;;;21.48;38.94;100999.11;1980832;89;29486;-60
2022/05/06 11:48:10;;;;;;;6.30;3.42;;;;;;;21.45;38.77;101004.30;1932883;91;34182;-57
2022/05/06 11:51:16;;;;;;;9.63;3.27;;;;;;;21.39;38.57;100998.88;1948759;89;30079;-59
2022/05/06 11:54:19;;;;;;;4.08;2.65;;;;;;;21.48;38.87;100999.95;1952002;89;27840;-58
2022/05/06 11:57:21;;;;;;;7.65;2.58;;;;;;;;;;1980970;89;29685;-59
2022/05/06 12:00:25;;;;;;;6.78;2.70;;;;;;;21.66;38.18;100999.42;1980577;89;31511;-59
2022/05/06 12:03:28;;;;;;;6.15;2.83;;;;;;;21.68;37.51;100997.42;1962040;89;34107;-60
2022/05/06 12:06:37;;;;;;;5.03;2.87;;;;;;;21.60;36.74;100995.36;1976619;89;29368;-60
2022/05/06 12:09:44;;;;;;;;;;;;;;;21.60;37.37;101002.63;1984107;89;27756;-59
2022/05/06 12:12:59;;;;;;;7.67;3.35;;;;;;;21.66;37.46;101004.87;1923278;92;29716;-59
2022/05/06 12:16:11;;;;;;;2.42;2.22;;;;;;;21.75;37.30;100995.03;1979708;89;31451;-59
2022/05/06 12:19:13;;;;;;;10.50;3.30;;;;;;;21.82;37.47;100997.09;1980910;89;33769;-59
2022/05/06 12:22:23;;;;;;;4.35;2.50;;;;;;;21.92;37.11;100991.72;1959790;89;30138;-59
2022/05/06 12:25:27;;;;;;;6.12;2.98;;;;;;;21.90;37.06;100986.88;1979674;89;27773;-63
2022/05/06 12:28:29;;;;;;;8.40;2.83;;;;;;;21.93;37.07;100981.65;1980903;89;29744;-59
2022/05/06 12:31:34;;;;;;;5.12;2.90;;;;;;;22.01;37.67;100991.41;1980891;89;32351;-59
2022/05/06 12:34:36;;;;;;;3.92;2.83;;;;;;;22.10;37.36;100990.59;1980467;89;33047;-59
2022/05/06 12:37:58;;;;;;;5.20;3.02;;;;;;;22.08;36.57;100993.98;1981096;89;29554;-58
2022/05/06 12:41:01;;;;;;;6.28;3.27;;;;;;;21.97;36.15;100997.64;1980584;89;27740;-59
2022/05/06 12:44:31;;;;;;;4.03;2.95;;;;;;;21.94;36.55;100986.11;1981361;89;28922;-59
2022/05/06 12:50:50;;;;;;;4.22;2.98;;;;;;;22.10;36.68;100984.28;1935922;91;34201;-59
2022/05/06 12:53:53;;;;;;;6.60;3.30;;;;;;;22.18;36.41;100984.97;1982074;89;30550;-64
2022/05/06 12:56:55;;;;;;;5.53;3.37;;;;;;;22.07;36.10;100981.82;1983675;89;27658;-64
2022/05/06 12:59:57;;;;;;;5.67;3.27;;;;;;;21.96;36.52;100980.91;1983456;89;28713;-61
2022/05/06 13:03:00;;;;;;;7.40;3.33;;;;;;;21.99;36.60;100968.37;1979996;89;32277;-60
2022/05/06 13:06:03;;;;;;;8.40;3.25;;;;;;;21.91;35.86;100969.52;1971290;90;32968;-60
2022/05/06 13:09:05;;;;;;;9.95;3.17;;;;;;;21.73;35.92;100972.48;1970960;90;30228;-61
2022/05/06 13:12:12;;;;;;;5.45;2.47;;;;;;;21.63;36.17;100972.41;1971579;90;28215;-60
2022/05/06 13:15:14;;;;;;;5.65;3.50;;;;;;;21.64;36.53;100971.41;1973602;90;29035;-59
2022/05/06 13:18:16;;;;;;;7.20;3.45;;;;;;;21.62;36.32;100969.31;1973466;90;31050;-60
2022/05/06 13:21:18;;;;;;;9.83;3.67;;;;;;;21.58;35.81;100972.77;1969023;88;33390;-60
2022/05/06 13:24:21;;;;;;;7.12;3.40;;;;;;;21.47;36.25;100961.42;1973431;90;30148;-58
2022/05/06 13:27:23;;;;;;;6.70;3.22;;;;;;;21.38;36.09;100960.86;1973232;90;27770;-59
2022/05/06 13:30:27;;;;;;;5.92;3.50;;;;;;;21.32;36.34;100967.70;1972988;90;28886;-59
2022/05/06 13:33:31;;;;;;;5.73;3.27;;;;;;;21.33;36.83;100961.25;1973585;90;31047;-61
2022/05/06 13:36:34;;;;;;;7.67;3.25;;;;;;;21.43;36.57;100959.95;1973509;90;33770;-60
2022/05/06 13:39:37;;;;;;;6.25;3.72;;;;;;;21.46;36.65;100960.20;1973232;90;30238;-58
2022/05/06 13:42:39;;;;;;;4.80;3.25;;;;;;;21.49;36.53;100957.22;1973288;90;27840;-58
2022/05/06 13:45:41;;;;;;;7.58;2.75;;;;;;;21.50;36.55;100953.50;1973234;90;28685;-58
2022/05/06 13:48:44;;;;;;;6.25;3.30;;;;;;;;;;1973005;90;31872;-62
2022/05/06 13:51:46;;;;;;;6.40;3.30;;;;;;;21.63;36.43;100944.66;1973208;90;32990;-59
2022/05/06 13:54:48;;;;;;;6.80;3.17;;;;;;;21.70;36.60;100940.89;1973442;90;30475;-59
2022/05/06 14:01:25;;;;;;;7.78;2.98;;;;;;;21.72;36.78;100936.66;1973447;90;29735;-59
2022/05/06 14:04:27;;;;;;;5.70;3.42;;;;;;;21.72;36.59;100929.36;1972609;90;32331;-58
2022/05/06 14:07:31;;;;;;;6.05;3.22;;;;;;;21.64;36.55;100935.96;1954234;90;33162;-58
2022/05/06 14:10:33;;;;;;;6.05;2.83;;;;;;;21.52;36.11;100936.48;1972975;90;30089;-58
2022/05/06 14:13:37;;;;;;;8.05;3.37;;;;;;;21.42;36.32;100934.19;1973271;90;27716;-58
2022/05/06 14:16:40;;;;;;;5.20;2.75;;;;;;;21.45;36.60;100941.59;1973505;90;28755;-63
2022/05/06 14:19:44;;;;;;;6.42;3.60;;;;;;;21.55;36.60;100938.47;1973420;90;31049;-60
2022/05/06 14:22:46;;;;;;;6.33;3.20;;;;;;;21.54;36.11;100934.01;1973429;90;33045;-59
2022/05/06 14:25:49;;;;;;;4.72;3.25;;;;;;;21.53;36.39;100931.40;1972893;90;29491;-60
2022/05/06 14:28:53;;;;;;;3.77;3.05;;;;;;;21.52;36.44;100927.82;1973127;90;27703;-59
2022/05/06 14:31:56;;;;;;;9.43;3.12;;;;;;;21.52;36.50;100923.73;1972921;90;28805;-59
2022/05/06 14:35:16;;;;;;;7.22;3.00;;;;;;;21.46;36.17;100913.86;1973279;90;31884;-59
2022/05/06 14:38:03;;;;;;;3.67;2.93;;;;;;;21.32;36.22;100917.28;1970806;90;34361;-59
2022/05/06 14:41:05;;;;;;;6.75;2.70;;;;;;;21.27;36.56;100919.52;1973582;90;29383;-59
2022/05/06 14:44:07;;;;;;;3.65;2.87;;;;;;;21.25;36.33;100922.39;1972792;90;27735;-58
2022/05/06 14:47:11;;;;;;;5.12;2.98;;;;;;;21.17;36.56;100922.16;1972701;90;29569;-59
2022/05/06 14:50:14;;;;;;;5.17;2.60;;;;;;;21.11;36.54;100922.67;1973057;90;31042;-62
2022/05/06 14:53:16;;;;;;;6.03;3.00;;;;;;;21.09;37.01;100917.88;1972796;90;34260;-63
2022/05/06 14:56:19;;;;;;;5.72;2.62;;;;;;;21.01;36.82;100913.08;1972944;90;30506;-61
2022/05/06 14:59:21;;;;;;;3.67;2.70;;;;;;;20.93;37.00;100919.64;1973098;90;27640;-60